Time;durP1;ratioP1;P1;durP2;ratioP2;P2;SDS_P1;SDS_P2;PMS_P1;PMS_P2;Temp;Humidity;BMP_temperature;BMP_pressure;BME280_temperature;BME280_humidity;BME280_pressure;Samples;Min_cycle;Max_cycle;Signal;HPM_P1;HPM_P2
2022/07/04 00:03:16;;;;;;;4.80;3.30;;;26.00;54.50;;;;;;220891;1265;22802;-52
2022/07/04 00:08:18;;;;;;;3.60;3.00;;;25.90;55.00;;;;;;221091;1268;24211;-54
2022/07/04 00:13:20;;;;;;;4.20;3.20;;;25.90;54.70;;;;;;220514;1268;25210;-51
2022/07/04 00:18:23;;;;;;;6.00;3.50;;;25.90;54.60;;;;;;220898;1268;22712;-52
2022/07/04 00:23:25;;;;;;;5.00;3.40;;;25.90;54.60;;;;;;220667;1266;24383;-54
2022/07/04 00:28:27;;;;;;;5.40;3.80;;;25.90;54.80;;;;;;220556;1268;22534;-52
2022/07/04 00:33:29;;;;;;;4.00;3.20;;;25.90;54.80;;;;;;220706;1268;22548;-53
2022/07/04 00:38:32;;;;;;;4.10;3.30;;;25.80;54.80;;;;;;220538;1268;22638;-50
2022/07/04 00:43:34;;;;;;;4.50;3.50;;;25.80;55.20;;;;;;220207;1267;23062;-50
2022/07/04 00:48:56;;;;;;;4.30;3.40;;;25.80;54.90;;;;;;221006;1267;22566;-52
2022/07/04 00:54:00;;;;;;;5.50;3.50;;;25.80;55.00;;;;;;220831;1267;22648;-54
2022/07/04 00:59:03;;;;;;;4.30;3.50;;;25.70;55.10;;;;;;220895;1265;25477;-50
2022/07/04 01:04:06;;;;;;;4.80;3.60;;;25.70;55.00;;;;;;220569;1265;24188;-52
2022/07/04 01:09:09;;;;;;;4.50;3.40;;;25.70;55.40;;;;;;220296;1267;22820;-52
2022/07/04 01:14:11;;;;;;;4.70;3.70;;;25.70;55.10;;;;;;220463;1265;25320;-52
2022/07/04 01:19:13;;;;;;;4.30;3.10;;;25.70;55.50;;;;;;220340;1268;353179;-52
2022/07/04 01:24:16;;;;;;;4.10;3.30;;;25.70;55.50;;;;;;220822;1268;22653;-53
2022/07/04 01:29:19;;;;;;;4.20;3.60;;;25.70;55.00;;;;;;220681;1268;24272;-54
2022/07/04 01:34:22;;;;;;;5.20;3.80;;;25.70;54.90;;;;;;220166;1268;22583;-52
2022/07/04 01:39:24;;;;;;;4.30;3.40;;;25.70;55.10;;;;;;220532;1267;22542;-54
2022/07/04 01:44:27;;;;;;;4.60;3.40;;;25.70;54.70;;;;;;220824;1268;24359;-51
2022/07/04 01:49:29;;;;;;;4.30;3.20;;;25.60;54.70;;;;;;220694;1268;22659;-54
2022/07/04 01:54:45;;;;;;;4.20;3.30;;;25.60;54.80;;;;;;220578;1268;24279;-51
2022/07/04 02:05:33;;;;;;;6.10;3.60;;;25.50;55.30;;;;;;220425;1268;24222;-55
2022/07/04 02:10:35;;;;;;;6.10;3.70;;;25.50;55.10;;;;;;220217;1267;22547;-52
2022/07/04 02:15:40;;;;;;;5.70;3.50;;;25.40;55.10;;;;;;220918;1268;24240;-52
2022/07/04 02:20:43;;;;;;;7.10;3.70;;;25.50;55.10;;;;;;220881;1268;25445;-52
2022/07/04 02:25:45;;;;;;;4.00;3.10;;;25.40;55.00;;;;;;220693;1268;24223;-52
2022/07/04 02:30:47;;;;;;;4.20;3.50;;;25.50;55.10;;;;;;220617;1265;24216;-51
2022/07/04 02:35:50;;;;;;;5.70;4.00;;;25.40;55.10;;;;;;220518;1268;22707;-52
2022/07/04 02:40:52;;;;;;;4.50;3.70;;;25.40;55.30;;;;;;220299;1268;22608;-54
2022/07/04 02:45:54;;;;;;;5.60;3.60;;;25.30;55.30;;;;;;220435;1267;24250;-52
2022/07/04 02:50:57;;;;;;;5.00;3.60;;;25.30;55.40;;;;;;220450;1268;22537;-50
2022/07/04 02:56:03;;;;;;;3.90;3.30;;;25.30;55.30;;;;;;220548;1268;23905;-51
2022/07/04 03:01:05;;;;;;;4.60;3.40;;;25.30;55.50;;;;;;220414;1265;22558;-53
2022/07/04 03:06:09;;;;;;;3.90;3.20;;;25.30;55.20;;;;;;220643;1265;22656;-52
2022/07/04 03:11:12;;;;;;;4.90;3.60;;;25.30;55.50;;;;;;220634;1268;24774;-52
2022/07/04 03:16:14;;;;;;;4.70;3.50;;;25.30;55.00;;;;;;220337;1268;25239;-51
2022/07/04 03:21:17;;;;;;;7.30;3.40;;;25.30;55.10;;;;;;220598;1268;23926;-51
2022/07/04 03:26:19;;;;;;;4.60;3.00;;;25.30;55.30;;;;;;220846;1265;22681;-52
2022/07/04 03:31:23;;;;;;;3.90;3.00;;;25.30;55.20;;;;;;220528;1265;23126;-50
2022/07/04 03:36:26;;;;;;;4.30;3.60;;;25.30;54.80;;;;;;220796;1266;24360;-52
2022/07/04 03:41:29;;;;;;;6.30;3.30;;;25.30;54.70;;;;;;221047;1267;23969;-55
2022/07/04 03:46:33;;;;;;;5.00;3.40;;;25.30;55.00;;;;;;220991;1265;22645;-54
2022/07/04 03:51:35;;;;;;;6.10;3.70;;;25.20;54.90;;;;;;220487;1265;22553;-54
2022/07/04 03:56:38;;;;;;;6.80;3.50;;;25.30;54.70;;;;;;220823;1265;25308;-52
2022/07/04 04:01:41;;;;;;;5.20;3.50;;;25.20;54.80;;;;;;220949;1265;22559;-51
2022/07/04 04:06:43;;;;;;;3.90;3.40;;;25.20;54.90;;;;;;220740;1266;23827;-55
2022/07/04 04:11:46;;;;;;;7.20;4.10;;;25.20;55.00;;;;;;220508;1268;22595;-52
2022/07/04 04:16:48;;;;;;;6.70;3.90;;;25.10;55.30;;;;;;220997;1268;22744;-55
2022/07/04 04:21:51;;;;;;;7.50;4.20;;;25.10;55.50;;;;;;220777;1268;24297;-51
2022/07/04 04:26:53;;;;;;;8.90;4.30;;;25.10;55.50;;;;;;221157;1268;22561;-54
2022/07/04 04:31:55;;;;;;;6.30;4.10;;;25.00;55.60;;;;;;220933;1268;24361;-53
2022/07/04 04:36:57;;;;;;;6.60;3.90;;;25.00;55.90;;;;;;220794;1268;24211;-50
2022/07/04 04:42:00;;;;;;;6.70;4.00;;;24.90;56.10;;;;;;220763;1266;22538;-53
2022/07/04 04:47:03;;;;;;;9.90;4.30;;;24.70;56.40;;;;;;220515;1265;22556;-51
2022/07/04 04:52:05;;;;;;;5.90;4.20;;;24.70;56.50;;;;;;220877;1268;25464;-51
2022/07/04 04:57:08;;;;;;;7.70;3.80;;;24.70;56.50;;;;;;220479;1268;22612;-52
2022/07/04 05:02:10;;;;;;;7.40;4.30;;;24.90;56.30;;;;;;220393;1266;23572;-52
2022/07/04 05:07:19;;;;;;;5.80;3.80;;;24.90;56.40;;;;;;220547;1267;24427;-54
2022/07/04 05:12:21;;;;;;;6.90;3.70;;;24.90;56.30;;;;;;220886;1265;22595;-53
2022/07/04 05:17:24;;;;;;;7.00;3.90;;;24.90;56.40;;;;;;220662;1265;25414;-52
2022/07/04 05:22:26;;;;;;;9.80;4.10;;;24.90;56.50;;;;;;221173;1270;22610;-51
2022/07/04 05:27:30;;;;;;;10.70;4.60;;;24.90;56.90;;;;;;221039;1268;25251;-51
2022/07/04 05:32:33;;;;;;;6.30;3.50;;;24.80;56.60;;;;;;220730;1268;25320;-52
2022/07/04 05:37:36;;;;;;;5.60;4.10;;;24.90;56.90;;;;;;220764;1266;22547;-55
2022/07/04 05:42:39;;;;;;;6.50;3.40;;;24.80;56.70;;;;;;220574;1265;24222;-52
2022/07/04 05:47:41;;;;;;;4.90;3.80;;;24.80;56.80;;;;;;220429;1268;24363;-50
2022/07/04 05:52:44;;;;;;;5.90;3.80;;;24.80;57.00;;;;;;220829;1268;25349;-50
2022/07/04 05:57:46;;;;;;;5.40;3.80;;;24.70;57.10;;;;;;220593;1265;22574;-51
2022/07/04 06:02:48;;;;;;;5.60;3.90;;;24.80;57.20;;;;;;220592;1268;24269;-52
2022/07/04 06:07:51;;;;;;;7.40;3.90;;;24.90;57.00;;;;;;220448;1268;22552;-49
2022/07/04 06:12:54;;;;;;;7.40;4.10;;;24.90;57.10;;;;;;220418;1268;22585;-52
2022/07/04 06:17:56;;;;;;;7.90;3.40;;;25.00;57.30;;;;;;220373;1269;22547;-54
2022/07/04 06:22:58;;;;;;;4.80;3.70;;;25.10;57.10;;;;;;220198;1268;22600;-53
2022/07/04 06:28:01;;;;;;;5.00;3.60;;;25.20;57.30;;;;;;220368;1268;22560;-50
2022/07/04 06:33:03;;;;;;;5.60;3.80;;;25.40;57.20;;;;;;220436;1268;25378;-53
2022/07/04 06:38:06;;;;;;;8.80;3.70;;;25.40;57.10;;;;;;220110;1265;24182;-53
2022/07/04 06:43:11;;;;;;;8.10;3.90;;;25.40;57.30;;;;;;220280;1268;22707;-52
2022/07/04 06:48:13;;;;;;;7.00;3.50;;;25.50;57.00;;;;;;220283;1268;23948;-51
2022/07/04 06:53:19;;;;;;;7.60;3.80;;;25.60;57.00;;;;;;220010;1267;25388;-54
2022/07/04 06:58:24;;;;;;;8.00;3.80;;;25.70;57.10;;;;;;220651;1268;25255;-51
2022/07/04 07:03:29;;;;;;;6.90;3.30;;;25.70;56.60;;;;;;220765;1265;22543;-54
2022/07/04 07:08:32;;;;;;;4.60;3.60;;;25.80;56.50;;;;;;220502;1268;23926;-53
2022/07/04 07:13:37;;;;;;;7.20;3.70;;;25.80;56.80;;;;;;220159;1268;22566;-53
2022/07/04 07:18:40;;;;;;;6.70;3.50;;;25.80;56.60;;;;;;220433;1268;25360;-55
2022/07/04 07:23:44;;;;;;;4.70;3.40;;;25.80;56.80;;;;;;220341;1265;23941;-51
2022/07/04 07:28:47;;;;;;;6.70;3.50;;;25.80;56.60;;;;;;220713;1265;24405;-53
2022/07/04 07:33:52;;;;;;;6.20;3.70;;;25.80;56.50;;;;;;220697;1268;24263;-55
2022/07/04 07:38:55;;;;;;;5.70;3.20;;;25.90;56.50;;;;;;220683;1265;22558;-52
2022/07/04 07:44:05;;;;;;;;;;;25.90;56.40;;;;;;220825;1265;22557;-53
2022/07/04 07:49:08;;;;;;;5.60;3.00;;;25.90;56.30;;;;;;220701;1268;25263;-54
2022/07/04 07:54:13;;;;;;;5.30;3.30;;;25.90;56.30;;;;;;220563;1268;24355;-54
2022/07/04 07:59:22;;;;;;;5.00;3.00;;;25.90;56.30;;;;;;220281;1268;25248;-52
2022/07/04 08:04:37;;;;;;;7.40;3.10;;;26.00;56.10;;;;;;220274;1268;24246;-53
2022/07/04 08:09:40;;;;;;;5.90;3.30;;;26.00;56.20;;;;;;220451;1268;24207;-54
2022/07/04 08:14:43;;;;;;;3.50;3.00;;;26.00;56.00;;;;;;219957;1268;24848;-53
2022/07/04 08:19:45;;;;;;;4.60;3.10;;;26.10;56.30;;;;;;220622;1265;24348;-54
2022/07/04 08:24:49;;;;;;;4.80;3.10;;;26.10;56.10;;;;;;220570;1268;22555;-53
2022/07/04 08:29:51;;;;;;;8.40;3.40;;;26.10;56.10;;;;;;220150;1268;23460;-53
2022/07/04 08:34:54;;;;;;;4.70;2.70;;;26.10;56.10;;;;;;220171;1268;23552;-55
2022/07/04 08:39:59;;;;;;;5.60;3.40;;;26.20;56.10;;;;;;220018;1268;22560;-50
2022/07/04 08:45:15;;;;;;;4.30;3.50;;;26.20;56.10;;;;;;220075;1268;25573;-52
2022/07/04 08:50:30;;;;;;;3.90;3.00;;;26.30;56.40;;;;;;220446;1265;25473;-53
2022/07/04 09:00:56;;;;;;;5.30;3.40;;;26.30;56.10;;;;;;220442;1266;24221;-53
2022/07/04 09:06:00;;;;;;;3.70;3.00;;;26.30;56.10;;;;;;220355;1266;25244;-54
2022/07/04 09:11:07;;;;;;;6.60;3.30;;;26.30;56.10;;;;;;220203;1267;22620;-50
2022/07/04 09:16:10;;;;;;;4.40;2.90;;;26.40;56.10;;;;;;220387;1268;25139;-52
2022/07/04 09:21:13;;;;;;;8.70;3.80;;;26.40;56.40;;;;;;220780;1268;24307;-56
2022/07/04 09:26:24;;;;;;;3.90;3.20;;;26.40;56.10;;;;;;220915;1268;22535;-51
2022/07/04 09:31:28;;;;;;;6.50;3.00;;;26.50;56.10;;;;;;220474;1268;23934;-53
2022/07/04 09:36:40;;;;;;;4.00;3.00;;;26.50;56.10;;;;;;220803;1265;23951;-52
2022/07/04 09:41:59;;;;;;;3.30;2.80;;;26.50;56.30;;;;;;220224;1268;25328;-55
2022/07/04 09:47:24;;;;;;;;;;;26.50;56.10;;;;;;220337;1268;23896;-53
2022/07/04 09:52:29;;;;;;;7.50;2.80;;;26.50;56.30;;;;;;220778;1270;22535;-54
2022/07/04 09:57:44;;;;;;;7.20;3.50;;;26.50;56.30;;;;;;220464;1268;22548;-52
2022/07/04 10:02:48;;;;;;;4.20;3.00;;;26.50;56.20;;;;;;221034;1270;22716;-52
2022/07/04 10:07:56;;;;;;;4.70;3.00;;;26.50;56.20;;;;;;220951;1268;25949;-54
2022/07/04 10:13:05;;;;;;;3.80;3.20;;;26.50;56.30;;;;;;220565;1270;22548;-53
2022/07/04 10:18:09;;;;;;;3.40;3.00;;;26.50;56.30;;;;;;220568;1268;22525;-54
2022/07/04 10:23:12;;;;;;;3.60;3.10;;;26.60;56.30;;;;;;220369;1270;22691;-55
2022/07/04 10:28:20;;;;;;;3.50;3.10;;;26.30;58.20;;;;;;220802;1268;24280;-53
2022/07/04 10:33:28;;;;;;;3.90;3.20;;;26.10;56.20;;;;;;220608;1268;24337;-52
2022/07/04 10:38:34;;;;;;;4.10;3.50;;;26.20;58.80;;;;;;220404;1270;22556;-50
2022/07/04 10:43:46;;;;;;;6.60;3.10;;;26.00;57.90;;;;;;220954;1268;24370;-54
2022/07/04 10:48:53;;;;;;;4.00;3.20;;;26.20;58.10;;;;;;220836;1268;24296;-55
2022/07/04 10:54:03;;;;;;;3.80;3.40;;;26.00;59.40;;;;;;220646;1270;24374;-54
2022/07/04 10:59:11;;;;;;;;;;;26.10;57.10;;;;;;220771;1268;24389;-54
2022/07/04 11:04:47;;;;;;;3.70;3.00;;;26.00;59.50;;;;;;220653;1268;22609;-54
2022/07/04 11:15:32;;;;;;;3.40;2.90;;;26.00;59.90;;;;;;220698;1268;24608;-55
2022/07/04 11:20:38;;;;;;;3.90;2.90;;;26.00;56.10;;;;;;220428;1268;22542;-54
2022/07/04 11:25:43;;;;;;;3.70;3.30;;;25.90;59.50;;;;;;220423;1268;22576;-52
2022/07/04 11:31:02;;;;;;;4.50;3.00;;;26.00;56.50;;;;;;220415;1268;24255;-52
2022/07/04 11:36:08;;;;;;;4.30;3.10;;;25.90;59.70;;;;;;220947;1268;22643;-57
2022/07/04 11:46:41;;;;;;;3.80;3.30;;;26.00;59.60;;;;;;220728;1268;24211;-54
2022/07/04 11:51:47;;;;;;;3.60;3.20;;;26.00;58.10;;;;;;220576;1268;24225;-53
2022/07/04 11:56:49;;;;;;;3.90;3.20;;;26.00;59.50;;;;;;220553;1268;22559;-54
2022/07/04 12:01:52;;;;;;;5.10;3.30;;;25.90;59.10;;;;;;220912;1268;25241;-52
2022/07/04 12:06:54;;;;;;;5.60;3.60;;;26.00;59.30;;;;;;220691;1268;22550;-55
2022/07/04 12:11:59;;;;;;;5.00;3.50;;;26.00;59.00;;;;;;220398;1268;24217;-50
2022/07/04 12:17:14;;;;;;;8.10;3.70;;;26.00;59.20;;;;;;220627;1268;26497;-51
2022/07/04 12:22:38;;;;;;;6.30;3.40;;;26.00;59.50;;;;;;220637;1268;22543;-50
2022/07/04 12:27:40;;;;;;;5.40;4.00;;;26.10;58.70;;;;;;220518;1268;25375;-52
2022/07/04 12:32:45;;;;;;;10.10;3.20;;;26.00;59.60;;;;;;220478;1268;22578;-52
2022/07/04 12:38:00;;;;;;;8.20;3.60;;;26.10;58.20;;;;;;220531;1268;22560;-52
2022/07/04 12:43:03;;;;;;;8.80;3.50;;;26.00;58.70;;;;;;220420;1268;25398;-50
2022/07/04 12:48:14;;;;;;;19.90;6.90;;;26.20;56.30;;;;;;220531;1268;24223;-53
2022/07/04 12:53:17;;;;;;;11.60;4.90;;;26.40;57.70;;;;;;220675;1268;25499;-54
2022/07/04 12:58:23;;;;;;;39.20;8.00;;;26.50;58.40;;;;;;220600;1268;22694;-55
2022/07/04 13:03:25;;;;;;;20.70;5.10;;;26.70;61.70;;;;;;220554;1268;22700;-52
2022/07/04 13:08:29;;;;;;;14.20;5.00;;;26.80;58.70;;;;;;220911;1268;22709;-53
2022/07/04 13:13:31;;;;;;;15.90;5.10;;;26.80;58.70;;;;;;220424;1268;24260;-53
2022/07/04 13:18:35;;;;;;;13.40;5.10;;;26.80;58.00;;;;;;220177;1268;279902;-54
2022/07/04 13:23:38;;;;;;;11.10;4.70;;;26.90;58.50;;;;;;220742;1268;22564;-54
2022/07/04 13:28:40;;;;;;;11.10;4.90;;;26.90;57.50;;;;;;220714;1268;24208;-53
2022/07/04 13:33:43;;;;;;;11.90;5.10;;;27.00;57.40;;;;;;220547;1268;22656;-51
2022/07/04 13:38:45;;;;;;;10.30;4.80;;;27.00;56.70;;;;;;220535;1268;22521;-52
2022/07/04 13:44:06;;;;;;;8.40;4.30;;;27.10;56.10;;;;;;220576;1265;22591;-53
2022/07/04 13:49:09;;;;;;;13.30;4.40;;;27.10;56.50;;;;;;220874;1265;23198;-53
2022/07/04 13:54:18;;;;;;;10.20;4.00;;;27.10;53.90;;;;;;220578;1265;25353;-50
2022/07/04 13:59:21;;;;;;;8.70;4.00;;;27.10;54.90;;;;;;220673;1265;25316;-50
2022/07/04 14:04:23;;;;;;;8.00;3.90;;;27.10;54.50;;;;;;220712;1268;25359;-52
2022/07/04 14:09:25;;;;;;;7.10;4.40;;;27.10;54.80;;;;;;220422;1265;24240;-50
2022/07/04 14:14:28;;;;;;;7.00;3.80;;;27.10;54.90;;;;;;220547;1265;22532;-51
2022/07/04 14:19:30;;;;;;;6.90;3.50;;;27.10;53.20;;;;;;220851;1265;22536;-52
2022/07/04 14:24:33;;;;;;;6.00;3.50;;;27.10;54.00;;;;;;220750;1265;22538;-53
2022/07/04 14:29:35;;;;;;;8.30;4.60;;;27.20;54.20;;;;;;220361;1268;24243;-51
2022/07/04 14:34:45;;;;;;;7.50;3.80;;;27.10;54.60;;;;;;220755;1268;25207;-52
2022/07/04 14:39:48;;;;;;;5.70;3.30;;;27.10;54.70;;;;;;220708;1268;23951;-51
2022/07/04 14:44:50;;;;;;;5.80;3.50;;;27.20;54.00;;;;;;220730;1265;24388;-52
2022/07/04 14:49:53;;;;;;;5.80;3.80;;;27.20;54.50;;;;;;220532;1265;22622;-51
2022/07/04 14:54:55;;;;;;;6.50;3.70;;;27.20;54.10;;;;;;220297;1265;23270;-52
2022/07/04 14:59:58;;;;;;;5.10;3.50;;;27.20;53.30;;;;;;220361;1268;22695;-51
2022/07/04 15:05:00;;;;;;;5.50;3.50;;;27.20;54.10;;;;;;220668;1268;23954;-50
2022/07/04 15:10:03;;;;;;;6.60;3.90;;;27.10;53.00;;;;;;220349;1268;24219;-52
2022/07/04 15:15:08;;;;;;;5.10;3.30;;;27.20;53.60;;;;;;220727;1268;25320;-50
2022/07/04 15:25:33;;;;;;;5.00;3.40;;;27.20;54.00;;;;;;220706;1265;22586;-52
2022/07/04 15:30:35;;;;;;;5.60;3.50;;;27.20;54.00;;;;;;220853;1268;22541;-50
2022/07/04 15:35:38;;;;;;;5.00;3.30;;;27.30;54.10;;;;;;221017;1268;25148;-51
2022/07/04 15:40:42;;;;;;;4.40;3.40;;;27.20;54.80;;;;;;220584;1268;24256;-53
2022/07/04 15:45:45;;;;;;;4.40;3.50;;;27.20;54.40;;;;;;221111;1265;25251;-53
2022/07/04 15:50:47;;;;;;;4.90;3.40;;;27.20;54.60;;;;;;221020;1265;24641;-51
2022/07/04 15:55:50;;;;;;;5.70;3.40;;;27.20;54.50;;;;;;220872;1265;23045;-53
2022/07/04 16:00:55;;;;;;;3.80;2.90;;;27.20;54.70;;;;;;219920;1268;22541;-50
2022/07/04 16:06:00;;;;;;;5.60;3.20;;;27.20;55.00;;;;;;220086;1267;22537;-53
2022/07/04 16:11:07;;;;;;;3.90;3.30;;;27.20;55.00;;;;;;220707;1268;22719;-53
2022/07/04 16:16:14;;;;;;;5.40;3.70;;;27.20;54.90;;;;;;220677;1268;22549;-50
2022/07/04 16:21:19;;;;;;;4.50;3.20;;;27.20;55.20;;;;;;220385;1265;24207;-49
2022/07/04 16:26:36;;;;;;;5.10;3.30;;;27.20;55.30;;;;;;220600;1268;22550;-52
2022/07/04 16:31:45;;;;;;;3.70;3.10;;;27.20;54.80;;;;;;220446;1268;24524;-51
2022/07/04 16:36:52;;;;;;;4.60;3.20;;;27.20;54.50;;;;;;220774;1268;24050;-51
2022/07/04 16:42:11;;;;;;;5.20;2.90;;;27.10;54.70;;;;;;220560;1268;25232;-50
2022/07/04 16:47:24;;;;;;;6.80;3.40;;;27.20;54.90;;;;;;220477;1268;22666;-50
2022/07/04 16:52:31;;;;;;;;;;;27.20;54.50;;;;;;221258;1265;24627;-52
2022/07/04 16:57:42;;;;;;;3.60;2.80;;;27.20;54.10;;;;;;220733;1268;24256;-53
2022/07/04 17:02:50;;;;;;;5.80;3.10;;;27.20;53.80;;;;;;220451;1267;26776;-52
2022/07/04 17:07:52;;;;;;;3.60;2.60;;;27.20;53.30;;;;;;220870;1265;24376;-51
2022/07/04 17:13:10;;;;;;;5.80;3.30;;;27.20;53.60;;;;;;220497;1265;22584;-54
2022/07/04 17:18:43;;;;;;;3.80;3.00;;;27.20;53.30;;;;;;220376;1265;24327;-52
2022/07/04 17:23:45;;;;;;;3.60;3.20;;;27.20;53.30;;;;;;220888;1268;23184;-53
2022/07/04 17:29:27;;;;;;;4.80;3.50;;;27.10;53.60;;;;;;220526;1265;22887;-52
2022/07/04 17:34:45;;;;;;;4.70;3.30;;;27.10;53.80;;;;;;220593;1268;22621;-49
2022/07/04 17:40:01;;;;;;;3.50;3.10;;;27.10;53.70;;;;;;220205;1265;25413;-54
2022/07/04 17:45:12;;;;;;;5.40;3.40;;;27.10;53.90;;;;;;220441;1265;24344;-50
2022/07/04 17:50:26;;;;;;;4.30;3.20;;;27.10;53.90;;;;;;220431;1265;22734;-52
2022/07/04 17:55:40;;;;;;;5.00;2.90;;;27.10;53.60;;;;;;220635;1265;22544;-53
2022/07/04 18:00:46;;;;;;;3.70;3.10;;;27.10;53.80;;;;;;220620;1268;22560;-53
2022/07/04 18:06:24;;;;;;;5.70;3.30;;;27.10;54.00;;;;;;220663;1268;25576;-51
2022/07/04 18:11:29;;;;;;;3.90;2.70;;;27.00;53.80;;;;;;220931;1265;24272;-53
2022/07/04 18:16:34;;;;;;;5.70;3.10;;;27.10;53.50;;;;;;220451;1266;22626;-52
2022/07/04 18:21:36;;;;;;;3.60;3.00;;;27.10;53.80;;;;;;220596;1265;22534;-51
2022/07/04 18:26:40;;;;;;;3.70;2.90;;;27.00;54.20;;;;;;220279;1265;22563;-50
2022/07/04 18:31:54;;;;;;;5.00;2.90;;;27.00;54.20;;;;;;220189;1268;22815;-49
2022/07/04 18:37:00;;;;;;;3.30;3.00;;;27.00;54.50;;;;;;220802;1268;24501;-48
2022/07/04 18:47:28;;;;;;;6.00;3.70;;;27.00;54.80;;;;;;220771;1268;25119;-53
2022/07/04 18:52:41;;;;;;;6.30;3.90;;;27.00;55.60;;;;;;220583;1265;24280;-48
2022/07/04 18:58:09;;;;;;;5.50;3.80;;;27.00;56.50;;;;;;220606;1267;22722;-51
2022/07/04 19:03:15;;;;;;;9.00;4.00;;;26.90;57.40;;;;;;220884;1268;25387;-49
2022/07/04 19:08:21;;;;;;;6.10;4.00;;;26.80;58.10;;;;;;220659;1268;25477;-51
2022/07/04 19:13:54;;;;;;;6.90;3.80;;;26.80;59.20;;;;;;220537;1267;25502;-50
2022/07/04 19:19:07;;;;;;;9.10;3.80;;;26.70;59.50;;;;;;220701;1267;22535;-51
2022/07/04 19:24:20;;;;;;;7.30;4.20;;;26.80;59.30;;;;;;220609;1266;24300;-52
2022/07/04 19:29:40;;;;;;;6.80;4.10;;;26.80;59.30;;;;;;220401;1265;22572;-47
2022/07/04 19:35:08;;;;;;;5.60;4.10;;;26.80;59.10;;;;;;220681;1268;22568;-48
2022/07/04 19:40:21;;;;;;;4.20;3.40;;;26.80;59.10;;;;;;220353;1268;22534;-49
2022/07/04 19:45:31;;;;;;;6.70;4.00;;;26.80;58.80;;;;;;220493;1265;25674;-50
2022/07/04 19:51:01;;;;;;;6.50;4.00;;;26.80;59.30;;;;;;220384;1266;22537;-51
2022/07/04 19:56:31;;;;;;;;;;;26.70;59.50;;;;;;220656;1265;22630;-48
2022/07/04 20:01:34;;;;;;;6.30;3.90;;;26.80;60.00;;;;;;220433;1267;25619;-52
2022/07/04 20:06:37;;;;;;;6.00;4.10;;;26.70;59.60;;;;;;220384;1265;22565;-48
2022/07/04 20:11:45;;;;;;;6.50;3.90;;;26.70;59.70;;;;;;220571;1268;24365;-50
2022/07/04 20:16:47;;;;;;;7.80;4.40;;;26.70;59.90;;;;;;220859;1268;22600;-48
2022/07/04 20:21:57;;;;;;;5.10;3.90;;;26.60;60.00;;;;;;220495;1268;23941;-51
2022/07/04 20:27:18;;;;;;;6.70;3.80;;;26.60;60.30;;;;;;220550;1268;22536;-49
2022/07/04 20:32:23;;;;;;;5.00;4.00;;;26.60;60.50;;;;;;220529;1268;22566;-47
2022/07/04 20:37:29;;;;;;;5.30;3.70;;;26.60;60.70;;;;;;220846;1268;22713;-50
2022/07/04 20:42:33;;;;;;;5.40;3.60;;;26.60;60.60;;;;;;220903;1265;24226;-48
2022/07/04 20:47:42;;;;;;;5.60;4.10;;;26.60;60.80;;;;;;220777;1265;22856;-52
2022/07/04 20:52:47;;;;;;;5.60;4.00;;;26.60;60.90;;;;;;221033;1268;24299;-49
2022/07/04 20:57:49;;;;;;;5.40;3.80;;;26.60;61.00;;;;;;220836;1268;24198;-49
2022/07/04 21:02:54;;;;;;;6.90;3.90;;;26.50;61.00;;;;;;220630;1265;25407;-51
2022/07/04 21:07:56;;;;;;;7.70;4.00;;;26.60;61.50;;;;;;220809;1268;24268;-52
2022/07/04 21:13:00;;;;;;;6.60;4.00;;;26.60;61.20;;;;;;220793;1268;24258;-51
2022/07/04 21:18:02;;;;;;;6.00;4.10;;;26.50;61.10;;;;;;220897;1265;25376;-51
2022/07/04 21:23:04;;;;;;;5.30;3.90;;;26.50;61.40;;;;;;220649;1268;22538;-51
2022/07/04 21:28:07;;;;;;;4.40;3.50;;;26.50;61.20;;;;;;220510;1265;24746;-50
2022/07/04 21:33:12;;;;;;;8.90;3.80;;;26.50;61.10;;;;;;221040;1265;23037;-51
2022/07/04 21:38:15;;;;;;;7.00;3.90;;;26.50;61.10;;;;;;220870;1265;24303;-53
2022/07/04 21:43:18;;;;;;;4.80;3.70;;;26.50;61.10;;;;;;220625;1267;22749;-50
2022/07/04 21:48:20;;;;;;;7.00;4.50;;;26.40;61.10;;;;;;220947;1268;24280;-50
2022/07/04 21:53:23;;;;;;;6.00;3.60;;;26.50;61.10;;;;;;220981;1267;24580;-50
2022/07/04 21:58:25;;;;;;;11.30;3.80;;;26.40;60.90;;;;;;220849;1267;25420;-49
2022/07/04 22:03:28;;;;;;;5.00;3.40;;;26.40;61.30;;;;;;220736;1268;22527;-53
2022/07/04 22:08:30;;;;;;;5.70;3.60;;;26.40;60.90;;;;;;220692;1268;22585;-56
2022/07/04 22:13:33;;;;;;;5.90;3.80;;;26.40;60.70;;;;;;220541;1265;22730;-51
2022/07/04 22:18:35;;;;;;;6.70;3.80;;;26.40;60.60;;;;;;220487;1265;22557;-53
2022/07/04 22:23:38;;;;;;;5.40;3.30;;;26.40;60.60;;;;;;220920;1267;22547;-51
2022/07/04 22:28:40;;;;;;;5.40;3.60;;;26.40;60.40;;;;;;220758;1265;22711;-49
2022/07/04 22:33:43;;;;;;;5.60;3.30;;;26.40;60.50;;;;;;220749;1268;25499;-52
2022/07/04 22:38:47;;;;;;;5.50;3.70;;;26.40;60.80;;;;;;220648;1268;24082;-53
2022/07/04 22:43:49;;;;;;;4.20;3.40;;;26.40;60.40;;;;;;220642;1267;24243;-51
2022/07/04 22:48:52;;;;;;;4.60;3.10;;;26.40;60.10;;;;;;220983;1268;22531;-49
2022/07/04 22:59:15;;;;;;;3.70;3.30;;;26.30;60.00;;;;;;220768;1265;23919;-50
2022/07/04 23:04:17;;;;;;;5.10;3.30;;;26.30;60.20;;;;;;220593;1268;22544;-50
2022/07/04 23:09:20;;;;;;;6.30;3.40;;;26.30;59.90;;;;;;220211;1267;24183;-51
2022/07/04 23:14:22;;;;;;;4.30;3.00;;;26.30;59.90;;;;;;220606;1268;22548;-47
2022/07/04 23:19:25;;;;;;;4.40;3.00;;;26.30;59.80;;;;;;220406;1268;24456;-52
2022/07/04 23:24:28;;;;;;;5.30;3.30;;;26.30;59.80;;;;;;220634;1268;24208;-51
2022/07/04 23:29:31;;;;;;;4.70;2.80;;;26.30;59.60;;;;;;220627;1268;22802;-51
2022/07/04 23:34:34;;;;;;;4.70;3.00;;;26.20;59.60;;;;;;220994;1265;24385;-50
2022/07/04 23:39:36;;;;;;;6.00;3.20;;;26.20;59.60;;;;;;220754;1266;24223;-50
2022/07/04 23:44:38;;;;;;;4.60;3.00;;;26.20;59.60;;;;;;221019;1268;22697;-49
2022/07/04 23:49:41;;;;;;;4.30;2.90;;;26.20;59.40;;;;;;220830;1268;22535;-51
2022/07/04 23:54:43;;;;;;;3.30;2.80;;;26.20;59.30;;;;;;220466;1268;22526;-52
2022/07/04 23:59:46;;;;;;;3.40;2.80;;;26.20;59.40;;;;;;220647;1268;22579;-52
